Terminal Aerodrome Forecast
Issued by NWS

Current Version | Previous Version | Graphics & Text | Print | Product List | Glossary On
Versions: 1 2 3 4 5 6 7 8 9 10 11 12 13 14 15 16 17 18 19 20 21 22
000
FTUS41 KILN 012300
TAFLUK
TAF
KLUK 012337Z 0200/0224 21006KT P6SM BKN050
     FM020100 21004KT P6SM BKN250
     FM020800 22004KT P6SM VCSH BKN080
     FM021000 22006KT P6SM -SHRA VCTS BKN045CB OVC120
     FM021700 24009KT P6SM VCSH BKN045
     FM022100 25009KT P6SM SCT045=

USA.gov is the U.S. government's official web portal to all federal, state and local government web resources and services.